createdAt,value
2017-09-20T09:18:05.524Z,48.43
2017-09-20T09:21:07.885Z,39.43
2017-09-20T09:24:09.557Z,37.37
2017-09-20T09:27:12.144Z,31.43
2017-09-20T09:30:13.985Z,36.60
2017-09-20T09:33:15.479Z,31.00
2017-09-20T09:36:17.193Z,31.80
2017-09-20T09:39:19.789Z,32.23
2017-09-20T09:42:25.997Z,30.50
2017-09-20T09:48:36.656Z,37.53
2017-09-20T09:51:39.788Z,35.67
2017-09-20T09:54:41.516Z,38.37
2017-09-20T09:57:43.187Z,42.60
2017-09-20T10:00:44.699Z,49.63
2017-09-20T10:03:47.032Z,47.67
2017-09-20T10:06:48.520Z,56.43
2017-09-20T10:09:50.080Z,50.57
2017-09-20T10:12:51.540Z,47.67
2017-09-20T10:15:53.059Z,52.10
2017-09-20T10:18:55.858Z,45.07
2017-09-20T10:21:57.372Z,66.07
2017-09-20T10:24:58.996Z,50.80
2017-09-20T10:28:01.420Z,47.80
2017-09-20T10:31:03.828Z,48.77
2017-09-20T10:34:05.326Z,45.73
2017-09-20T10:37:06.947Z,56.63
2017-09-20T10:40:09.115Z,47.53
2017-09-20T10:43:10.725Z,42.77
2017-09-20T10:46:12.980Z,50.33
2017-09-20T10:49:14.438Z,35.07
2017-09-20T10:52:16.776Z,35.87
2017-09-20T10:55:18.320Z,40.67
2017-09-20T10:58:19.808Z,40.20
2017-09-20T11:01:21.259Z,44.40
2017-09-20T11:04:22.788Z,36.50
2017-09-20T11:07:24.312Z,35.77
2017-09-20T11:10:25.905Z,37.03
2017-09-20T11:13:27.434Z,32.57
2017-09-20T11:16:28.999Z,35.40
2017-09-20T11:19:30.584Z,24.30
2017-09-20T11:22:32.124Z,40.33
2017-09-20T11:25:33.714Z,31.07
2017-09-20T11:28:35.960Z,24.47
2017-09-20T11:31:37.556Z,21.17
2017-09-20T11:34:39.116Z,26.13
2017-09-20T11:37:40.641Z,32.13
2017-09-20T11:40:43.049Z,34.03
2017-09-20T11:43:44.666Z,24.37
2017-09-20T11:46:46.211Z,26.27
2017-09-20T11:49:47.715Z,21.67
2017-09-20T11:52:49.268Z,24.83
2017-09-20T11:55:50.766Z,19.63
2017-09-20T11:58:52.312Z,25.73
2017-09-20T12:01:53.842Z,21.00
2017-09-20T12:04:55.341Z,20.13
2017-09-20T12:07:56.869Z,23.70
2017-09-20T12:14:06.508Z,22.30
2017-09-20T12:17:07.942Z,16.73
2017-09-20T12:20:10.189Z,18.60
2017-09-20T12:23:11.655Z,21.10
2017-09-20T12:26:13.908Z,16.93
2017-09-20T12:29:15.429Z,16.53
2017-09-20T12:32:16.976Z,16.53
2017-09-20T12:35:18.472Z,13.67
2017-09-20T12:38:19.976Z,18.20
2017-09-20T12:41:21.493Z,9.20
2017-09-20T12:44:23.020Z,9.47
2017-09-20T12:47:24.579Z,14.33
2017-09-20T12:50:26.483Z,59.20
2017-09-20T12:53:28.111Z,16.20
2017-09-20T12:56:29.806Z,10.50
2017-09-20T12:59:31.288Z,10.13
2017-09-20T13:02:33.484Z,6.70
2017-09-20T13:05:35.719Z,7.73
2017-09-20T13:08:37.279Z,11.30
2017-09-20T13:11:39.608Z,11.17
2017-09-20T13:14:41.994Z,8.20
2017-09-20T13:17:43.507Z,4.50
2017-09-20T13:20:49.141Z,8.00
2017-09-20T13:23:50.612Z,5.97
2017-09-20T13:26:52.045Z,6.33
2017-09-20T13:29:54.368Z,12.17
2017-09-20T13:32:57.532Z,5.30
2017-09-20T13:36:00.685Z,4.23
2017-09-20T13:39:02.250Z,5.67
2017-09-20T13:42:03.723Z,5.90
2017-09-20T13:45:06.019Z,4.63
2017-09-20T13:48:07.515Z,5.13
2017-09-20T13:51:09.011Z,5.83
2017-09-20T13:54:10.536Z,3.50
2017-09-20T13:57:12.065Z,5.20
2017-09-20T14:00:13.601Z,4.83
2017-09-20T14:03:15.129Z,3.03
2017-09-20T14:06:17.473Z,5.33
2017-09-20T14:09:19.759Z,8.13
2017-09-20T14:12:21.297Z,3.87
2017-09-20T14:15:22.800Z,4.63
2017-09-20T14:18:24.356Z,7.33
2017-09-20T14:21:25.893Z,5.77
2017-09-20T14:24:28.139Z,7.47
2017-09-20T14:27:30.388Z,10.20
2017-09-20T14:30:31.916Z,9.67
2017-09-20T14:36:46.699Z,8.93
2017-09-20T14:39:48.306Z,6.07
2017-09-20T14:42:50.574Z,6.10
2017-09-20T14:45:52.897Z,12.83
2017-09-20T14:48:54.422Z,7.03
2017-09-20T14:51:56.708Z,6.67
2017-09-20T14:54:58.251Z,7.43
2017-09-20T14:57:59.938Z,6.90
2017-09-20T15:04:09.680Z,6.57
2017-09-20T15:07:11.200Z,6.73
2017-09-20T15:10:12.738Z,7.00
2017-09-20T15:13:14.423Z,6.97
2017-09-20T15:16:16.713Z,9.10
2017-09-20T15:19:19.007Z,10.87
2017-09-20T15:22:20.538Z,11.13
2017-09-20T15:25:22.832Z,7.80
2017-09-20T15:28:24.328Z,9.83
2017-09-20T15:31:25.880Z,11.70
2017-09-20T15:34:27.530Z,14.80
2017-09-20T15:46:12.548Z,7.43
2017-09-20T15:49:14.075Z,12.90
2017-09-20T15:52:15.687Z,9.07
2017-09-20T15:55:17.196Z,6.80
2017-09-20T15:58:18.754Z,12.40
2017-09-20T16:01:20.289Z,8.07
2017-09-20T16:04:21.883Z,7.87
2017-09-20T16:07:24.256Z,4.13
2017-09-20T16:10:25.849Z,8.10
2017-09-20T16:13:27.406Z,11.23
2017-09-20T17:57:54.042Z,6.70
2017-09-20T18:00:56.342Z,4.90
2017-09-20T18:03:58.599Z,8.20
2017-09-20T18:10:08.633Z,10.13
2017-09-20T18:13:10.918Z,11.10
2017-09-20T18:16:16.179Z,12.00
2017-09-20T18:19:18.621Z,8.53
2017-09-20T18:22:20.283Z,7.07
2017-09-20T18:25:27.224Z,8.77
2017-09-20T18:28:29.655Z,11.50
2017-09-20T18:31:32.089Z,6.20
2017-09-20T18:34:33.798Z,5.73
2017-09-20T18:37:36.029Z,8.43
2017-09-20T18:40:37.606Z,6.27
2017-09-20T18:43:39.504Z,10.47
2017-09-20T19:54:39.023Z,9.43
2017-09-20T19:57:44.279Z,9.83
2017-09-20T20:07:53.311Z,12.60
2017-09-20T20:10:54.767Z,8.63
2017-09-20T20:13:56.208Z,9.83
2017-09-20T20:16:57.678Z,5.80
2017-09-20T20:19:59.139Z,9.23
2017-09-20T20:23:00.564Z,6.43
2017-09-20T20:26:02.075Z,16.60
2017-09-20T20:29:03.691Z,8.70
2017-09-20T20:32:05.053Z,9.10
2017-09-20T20:35:06.498Z,8.97
2017-09-20T20:38:07.940Z,11.43
2017-09-20T20:41:09.481Z,20.80
2017-09-20T20:44:10.941Z,8.40
2017-09-20T20:47:12.435Z,18.83
2017-09-20T20:50:14.686Z,11.07
2017-09-20T20:53:16.237Z,11.93
2017-09-20T20:56:17.768Z,15.47
2017-09-20T20:59:19.300Z,9.43
2017-09-20T21:02:20.972Z,10.27
2017-09-20T21:05:22.484Z,12.03
2017-09-20T21:08:24.038Z,10.70
2017-09-20T21:11:25.664Z,17.20
2017-09-20T21:14:27.166Z,12.60
2017-09-20T21:17:28.731Z,10.67
2017-09-20T21:20:30.210Z,7.93
2017-09-20T21:23:31.939Z,7.60
2017-09-20T21:26:33.484Z,13.40
2017-09-20T21:29:35.085Z,19.03
2017-09-20T21:32:36.654Z,13.83
2017-09-20T21:35:38.307Z,9.43
2017-09-20T21:38:39.828Z,13.40
2017-09-20T21:41:41.396Z,8.93
2017-09-20T21:44:43.605Z,13.43
2017-09-20T21:47:45.103Z,10.17
2017-09-20T21:50:46.652Z,9.73
2017-09-20T21:53:48.172Z,10.93
2017-09-20T21:56:49.675Z,24.03
2017-09-20T21:59:51.200Z,12.73
2017-09-20T22:02:52.812Z,13.03
2017-09-20T22:05:54.330Z,11.37
2017-09-20T22:08:55.853Z,11.47
2017-09-20T22:11:58.060Z,6.83
2017-09-20T22:15:17.906Z,11.73
2017-09-20T22:18:37.911Z,7.40
2017-09-20T22:21:57.898Z,11.10
2017-09-20T22:25:17.789Z,17.30
2017-09-20T22:28:19.417Z,11.53
2017-09-20T22:31:21.158Z,6.60
2017-09-20T22:34:22.646Z,22.27
2017-09-20T22:37:24.236Z,7.57
2017-09-20T22:40:25.768Z,9.27
2017-09-20T22:43:27.244Z,12.13
2017-09-20T22:46:29.459Z,11.53
2017-09-20T22:49:30.985Z,6.93
2017-09-20T22:52:32.691Z,10.47
2017-09-20T22:55:34.906Z,12.83
2017-09-20T22:58:36.496Z,23.70
2017-09-20T23:01:38.060Z,16.83
2017-09-20T23:04:40.320Z,9.80
2017-09-20T23:07:41.885Z,16.17
2017-09-20T23:10:43.433Z,20.23
2017-09-20T23:13:45.037Z,19.03
2017-09-20T23:16:47.298Z,15.97
2017-09-20T23:19:48.743Z,9.93
2017-09-20T23:22:50.257Z,11.03
2017-09-20T23:25:51.765Z,23.03
2017-09-20T23:28:53.238Z,10.13
2017-09-20T23:31:55.532Z,9.70
2017-09-20T23:34:56.988Z,10.97
2017-09-20T23:37:58.450Z,16.53
2017-09-20T23:40:59.907Z,23.23
2017-09-20T23:44:01.339Z,10.77
2017-09-20T23:47:02.811Z,20.43
2017-09-20T23:50:04.288Z,13.47
2017-09-20T23:53:05.693Z,16.17
2017-09-20T23:56:07.197Z,15.13
2017-09-20T23:59:08.701Z,14.67
